Terminal Aerodrome Forecast
Issued by NWS

Home | Current Version | Previous Version | Text Only | Print | Product List | Glossary On
Versions: 1 2 3 4 5 6 7 8 9 10 11 12 13 14 15 16 17 18 19 20 21 22 23 24
000
FTUS45 KTFX 261100
TAFCTB
TAF
KCTB 261135Z 2612/2712 34017KT P6SM VCSH SCT015 BKN025
      TEMPO 2612/2614 2SM -SN BR BKN015
     FM261400 32010KT P6SM BKN060
     FM261800 25011KT P6SM SCT120
     FM270500 25010KT P6SM BKN120=

USA.gov is the U.S. government's official web portal to all federal, state and local government web resources and services.